Time;durP1;ratioP1;P1;durP2;ratioP2;P2;SDS_P1;SDS_P2;PMS_P1;PMS_P2;Temp;Humidity;BMP_temperature;BMP_pressure;BME280_temperature;BME280_humidity;BME280_pressure;Samples;Min_cycle;Max_cycle;Signal;HPM_P1;HPM_P2
2022/02/19 00:00:31;;;;;;;6.53;2.05;;;4.00;99.90;;;;;;5095424;28;20023;-78
2022/02/19 00:02:57;;;;;;;12.27;4.35;;;3.90;99.90;;;;;;5093815;28;20039;-74
2022/02/19 00:05:24;;;;;;;10.13;2.80;;;3.90;99.90;;;;;;5094877;28;20566;-73
2022/02/19 00:07:51;;;;;;;11.23;2.38;;;3.80;99.90;;;;;;5095588;28;20042;-74
2022/02/19 00:10:17;;;;;;;10.48;3.10;;;3.90;99.90;;;;;;5095493;28;20073;-71
2022/02/19 00:12:43;;;;;;;16.08;4.30;;;3.90;99.90;;;;;;5095156;28;20028;-74
2022/02/19 00:15:09;;;;;;;12.30;2.90;;;3.80;99.90;;;;;;5095027;28;20020;-76
2022/02/19 00:17:34;;;;;;;12.95;2.90;;;3.90;99.90;;;;;;5095111;28;20016;-74
2022/02/19 00:20:00;;;;;;;13.27;3.67;;;3.80;99.90;;;;;;5095556;28;20024;-74
2022/02/19 00:22:26;;;;;;;9.80;2.38;;;3.80;99.90;;;;;;5094997;28;20024;-73
2022/02/19 00:24:52;;;;;;;9.07;2.60;;;3.80;99.90;;;;;;5094891;28;20024;-77
2022/02/19 00:27:18;;;;;;;13.15;3.20;;;3.70;99.90;;;;;;5094897;28;20557;-72
2022/02/19 00:29:45;;;;;;;14.23;2.58;;;3.80;99.90;;;;;;5095095;28;20020;-75
2022/02/19 00:32:11;;;;;;;11.23;2.47;;;3.70;99.90;;;;;;5094800;28;20093;-74
2022/02/19 00:34:36;;;;;;;12.50;3.83;;;3.70;99.90;;;;;;5095208;28;20024;-73
2022/02/19 00:37:03;;;;;;;13.77;3.35;;;3.70;99.90;;;;;;5094666;28;20103;-74
2022/02/19 00:39:29;;;;;;;11.82;4.82;;;3.70;99.90;;;;;;5094603;28;20031;-74
2022/02/19 00:41:55;;;;;;;13.57;2.75;;;3.60;99.90;;;;;;5093297;28;20463;-75
2022/02/19 00:44:21;;;;;;;14.13;3.35;;;3.70;99.90;;;;;;5094572;28;20081;-76
2022/02/19 00:46:47;;;;;;;12.65;3.00;;;3.70;99.90;;;;;;5094515;28;20031;-76
2022/02/19 00:49:13;;;;;;;11.63;3.40;;;3.70;99.90;;;;;;5094499;28;20089;-73
2022/02/19 00:51:39;;;;;;;11.48;2.42;;;3.70;99.90;;;;;;5094397;28;20027;-76
2022/02/19 00:54:05;;;;;;;15.38;3.17;;;3.70;99.90;;;;;;5094503;28;20035;-75
2022/02/19 00:56:30;;;;;;;15.48;4.50;;;3.80;99.90;;;;;;5094360;28;20070;-74
2022/02/19 00:58:56;;;;;;;15.38;2.90;;;3.80;99.90;;;;;;5093336;28;20016;-75
2022/02/19 01:01:23;;;;;;;12.05;2.80;;;3.80;99.90;;;;;;5094246;28;20489;-73
2022/02/19 01:03:52;;;;;;;16.75;2.83;;;3.90;99.90;;;;;;5093983;28;20397;-72
2022/02/19 01:06:19;;;;;;;15.10;2.90;;;3.90;99.90;;;;;;5094176;28;20099;-74
2022/02/19 01:08:45;;;;;;;13.57;3.00;;;3.90;99.90;;;;;;5092864;28;20028;-73
2022/02/19 01:11:11;;;;;;;17.98;2.65;;;3.80;99.90;;;;;;5094058;28;20027;-73
2022/02/19 01:13:36;;;;;;;8.05;2.63;;;3.80;99.90;;;;;;5094000;28;20107;-75
2022/02/19 01:16:02;;;;;;;14.52;4.15;;;3.80;99.90;;;;;;5094527;28;20059;-76
2022/02/19 01:18:28;;;;;;;11.90;3.00;;;3.70;99.90;;;;;;5093928;28;20027;-74
2022/02/19 01:20:54;;;;;;;16.83;3.85;;;3.70;99.90;;;;;;5093886;28;20027;-75
2022/02/19 01:23:19;;;;;;;16.55;3.53;;;3.70;99.90;;;;;;5093817;28;20028;-76
2022/02/19 01:25:45;;;;;;;12.43;3.13;;;3.60;99.90;;;;;;5094103;28;20028;-74
2022/02/19 01:28:10;;;;;;;14.68;3.50;;;3.50;99.90;;;;;;5094004;28;20478;-74
2022/02/19 01:30:36;;;;;;;12.90;4.18;;;3.50;99.90;;;;;;5093676;28;20069;-72
2022/02/19 01:33:02;;;;;;;13.30;3.95;;;3.40;99.90;;;;;;5093629;28;20095;-76
2022/02/19 01:35:28;;;;;;;14.27;3.03;;;3.40;99.90;;;;;;5093675;28;20103;-74
2022/02/19 01:37:54;;;;;;;15.48;3.80;;;3.40;99.90;;;;;;5093863;28;20107;-73
2022/02/19 01:40:19;;;;;;;15.48;2.88;;;3.40;99.90;;;;;;5093570;28;20024;-76
2022/02/19 01:42:45;;;;;;;12.20;2.20;;;3.30;99.90;;;;;;5093805;28;20049;-74
2022/02/19 01:45:13;;;;;;;18.27;5.40;;;3.30;99.90;;;;;;5093506;28;20390;-74
2022/02/19 01:47:41;;;;;;;18.58;5.43;;;3.30;99.90;;;;;;5093483;28;20417;-75
2022/02/19 01:50:09;;;;;;;14.45;3.05;;;3.40;99.90;;;;;;5093454;28;20028;-72
2022/02/19 01:52:35;;;;;;;15.50;3.88;;;3.30;99.90;;;;;;5093438;28;20390;-74
2022/02/19 01:55:01;;;;;;;10.88;2.85;;;3.40;99.90;;;;;;5093261;28;20044;-76
2022/02/19 01:57:27;;;;;;;22.13;6.60;;;3.30;99.90;;;;;;5093378;28;20028;-72
2022/02/19 01:59:53;;;;;;;12.63;2.35;;;3.30;99.90;;;;;;5093331;28;20371;-75
2022/02/19 02:02:19;;;;;;;17.65;5.05;;;3.30;99.90;;;;;;5093371;28;20436;-72
2022/02/19 02:04:45;;;;;;;15.23;3.42;;;3.20;99.90;;;;;;5093087;28;20056;-74
2022/02/19 02:07:11;;;;;;;11.82;3.13;;;3.20;99.90;;;;;;5093224;28;20024;-73
2022/02/19 02:09:37;;;;;;;7.53;3.15;;;3.10;99.90;;;;;;5093256;28;20032;-73
2022/02/19 02:12:06;;;;;;;16.73;5.20;;;3.00;99.90;;;;;;5097004;28;20027;-73
2022/02/19 02:14:41;;;;;;;24.95;9.05;;;2.90;99.90;;;;;;5097585;28;20023;-74
2022/02/19 02:17:10;;;;;;;22.98;6.80;;;3.00;99.90;;;;;;5097733;28;20031;-74
2022/02/19 02:19:37;;;;;;;11.40;4.05;;;2.80;99.90;;;;;;5097594;28;20021;-72
2022/02/19 02:22:08;;;;;;;26.63;10.18;;;2.90;99.90;;;;;;5097547;28;20054;-74
2022/02/19 02:24:36;;;;;;;37.00;15.48;;;2.80;99.90;;;;;;5097845;28;20028;-74
2022/02/19 02:27:08;;;;;;;28.17;12.63;;;2.80;99.90;;;;;;5097196;28;20024;-77
2022/02/19 02:29:45;;;;;;;11.27;3.58;;;2.80;99.90;;;;;;5097218;28;20063;-75
2022/02/19 02:32:11;;;;;;;18.65;6.38;;;2.90;99.90;;;;;;5097416;28;20016;-74
2022/02/19 02:34:51;;;;;;;29.90;14.55;;;2.80;99.90;;;;;;5095708;28;20028;-72
2022/02/19 02:37:17;;;;;;;14.38;4.60;;;2.80;99.90;;;;;;5097321;28;20027;-73
2022/02/19 02:39:43;;;;;;;8.45;1.98;;;2.80;99.90;;;;;;5096961;28;20394;-75
2022/02/19 02:42:09;;;;;;;9.18;2.28;;;2.80;99.90;;;;;;5096914;28;20050;-73
2022/02/19 02:44:39;;;;;;;14.23;2.47;;;2.80;99.90;;;;;;5096875;28;20060;-76
2022/02/19 02:47:07;;;;;;;9.63;2.17;;;2.80;99.90;;;;;;5096885;28;20027;-73
2022/02/19 02:49:32;;;;;;;9.30;2.03;;;2.70;99.90;;;;;;5097321;28;20032;-74
2022/02/19 02:51:58;;;;;;;12.48;2.10;;;2.70;99.90;;;;;;5096777;28;20393;-74
2022/02/19 02:54:24;;;;;;;12.57;3.22;;;2.70;99.90;;;;;;5096586;28;20035;-75
2022/02/19 02:56:50;;;;;;;14.25;3.67;;;2.60;99.90;;;;;;5096655;28;20103;-75
2022/02/19 02:59:15;;;;;;;13.80;3.72;;;2.50;99.90;;;;;;5097146;28;20042;-75
2022/02/19 03:01:41;;;;;;;12.80;3.17;;;2.40;99.90;;;;;;5096586;28;20070;-76
2022/02/19 03:04:07;;;;;;;9.45;2.45;;;2.40;99.90;;;;;;5096366;28;20138;-75
2022/02/19 03:06:32;;;;;;;11.98;1.92;;;2.40;99.90;;;;;;5096751;28;20028;-74
2022/02/19 03:08:58;;;;;;;12.23;2.63;;;2.50;99.90;;;;;;5095409;28;20551;-73
2022/02/19 03:11:24;;;;;;;9.13;2.42;;;2.60;99.90;;;;;;5096403;28;20024;-73
2022/02/19 03:13:49;;;;;;;10.43;2.65;;;2.60;99.90;;;;;;5096271;28;20036;-73
2022/02/19 03:16:15;;;;;;;8.48;2.30;;;2.70;99.90;;;;;;5096290;28;20028;-72
2022/02/19 03:18:40;;;;;;;11.90;2.00;;;2.80;99.90;;;;;;5096238;28;20481;-73
2022/02/19 03:21:06;;;;;;;6.53;2.53;;;2.80;99.90;;;;;;5096205;28;20099;-73
2022/02/19 03:23:32;;;;;;;8.55;2.00;;;2.60;99.90;;;;;;5095033;28;20020;-78
2022/02/19 03:25:58;;;;;;;10.18;2.30;;;2.50;99.90;;;;;;5096112;28;20479;-74
2022/02/19 03:28:24;;;;;;;10.40;2.15;;;2.40;99.90;;;;;;5096088;28;20055;-73
2022/02/19 03:30:49;;;;;;;7.85;2.25;;;2.30;99.90;;;;;;5096316;28;20055;-74
2022/02/19 03:33:15;;;;;;;5.25;1.67;;;2.20;99.90;;;;;;5094594;28;20504;-76
2022/02/19 03:35:41;;;;;;;7.53;1.88;;;2.20;99.90;;;;;;5095915;28;20016;-74
2022/02/19 03:38:06;;;;;;;10.93;4.20;;;2.10;99.90;;;;;;5096196;28;20521;-72
2022/02/19 03:40:32;;;;;;;10.70;4.32;;;2.20;99.90;;;;;;5096111;28;20024;-75
2022/02/19 03:42:59;;;;;;;10.70;3.50;;;2.10;99.90;;;;;;5096098;28;20428;-72
2022/02/19 03:45:25;;;;;;;11.15;2.40;;;2.10;99.90;;;;;;5095743;28;20017;-74
2022/02/19 03:47:50;;;;;;;17.17;3.40;;;2.10;99.90;;;;;;5095942;28;20028;-73
2022/02/19 03:50:17;;;;;;;9.40;1.98;;;2.00;99.90;;;;;;5095668;28;20052;-74
2022/02/19 03:52:46;;;;;;;9.55;2.22;;;2.00;99.90;;;;;;5095598;28;20032;-76
2022/02/19 03:55:12;;;;;;;14.02;2.72;;;2.00;99.90;;;;;;5095379;28;20016;-75
2022/02/19 03:57:37;;;;;;;11.23;2.72;;;1.90;99.90;;;;;;5095503;28;20023;-72
2022/02/19 04:00:06;;;;;;;12.20;3.00;;;2.00;99.90;;;;;;5095678;28;20027;-74
2022/02/19 04:02:32;;;;;;;10.23;2.80;;;1.90;99.90;;;;;;5095922;28;20022;-73
2022/02/19 04:04:58;;;;;;;9.70;2.42;;;2.00;99.90;;;;;;5095259;28;20040;-72
2022/02/19 04:07:23;;;;;;;16.35;3.65;;;2.00;99.90;;;;;;5095279;28;20035;-74
2022/02/19 04:09:49;;;;;;;8.75;2.20;;;1.90;99.90;;;;;;5095560;28;20032;-73
2022/02/19 04:12:15;;;;;;;12.75;2.70;;;2.00;99.90;;;;;;5095242;28;20085;-75
2022/02/19 04:14:41;;;;;;;14.43;2.47;;;1.90;99.90;;;;;;5095397;28;20060;-75
2022/02/19 04:17:07;;;;;;;13.20;2.85;;;2.00;99.90;;;;;;5095401;28;20027;-73
2022/02/19 04:19:32;;;;;;;9.48;2.17;;;2.00;99.90;;;;;;5095084;28;20062;-75
2022/02/19 04:21:58;;;;;;;11.40;2.25;;;2.00;99.90;;;;;;5093772;28;20024;-77
2022/02/19 04:24:23;;;;;;;11.63;1.92;;;1.90;99.90;;;;;;5095282;28;20099;-73
2022/02/19 04:26:49;;;;;;;8.80;2.10;;;2.00;99.90;;;;;;5095162;28;20563;-74
2022/02/19 04:29:15;;;;;;;10.13;2.72;;;1.90;99.90;;;;;;5095183;28;20108;-75
2022/02/19 04:31:40;;;;;;;16.30;2.80;;;2.00;99.90;;;;;;5095095;28;20028;-71
2022/02/19 04:34:06;;;;;;;11.25;2.38;;;2.00;99.90;;;;;;5094771;28;20076;-73
2022/02/19 04:36:32;;;;;;;13.40;2.88;;;2.10;99.90;;;;;;5095015;28;20077;-73
2022/02/19 04:38:58;;;;;;;11.73;2.05;;;2.20;99.90;;;;;;5094741;28;20020;-76
2022/02/19 04:41:24;;;;;;;17.33;4.43;;;2.20;99.90;;;;;;5094639;28;20024;-74
2022/02/19 04:43:49;;;;;;;15.00;2.90;;;2.30;99.90;;;;;;5094600;28;20028;-76
2022/02/19 04:46:15;;;;;;;15.57;2.42;;;2.50;99.90;;;;;;5094890;28;20042;-75
2022/02/19 04:48:40;;;;;;;9.00;1.70;;;2.50;99.90;;;;;;5094478;28;20390;-75
2022/02/19 04:51:06;;;;;;;12.82;2.72;;;2.60;99.90;;;;;;5094511;28;20027;-72
2022/02/19 04:53:32;;;;;;;16.35;2.75;;;2.50;99.90;;;;;;5094609;28;20024;-74
2022/02/19 04:55:58;;;;;;;11.30;2.78;;;2.50;99.90;;;;;;5094314;28;20027;-73
2022/02/19 04:58:23;;;;;;;14.68;2.25;;;2.50;99.90;;;;;;5094335;28;20047;-75
2022/02/19 05:00:49;;;;;;;8.23;2.00;;;2.50;99.90;;;;;;5094282;28;20603;-74
2022/02/19 05:03:15;;;;;;;9.95;2.45;;;2.50;99.90;;;;;;5094319;28;20437;-76
2022/02/19 05:05:41;;;;;;;9.43;2.25;;;2.60;99.90;;;;;;5093793;28;20127;-74
2022/02/19 05:08:06;;;;;;;12.70;2.90;;;2.60;99.90;;;;;;5094139;28;20047;-74
2022/02/19 05:10:32;;;;;;;9.55;2.88;;;2.60;99.90;;;;;;5094074;28;20474;-75
2022/02/19 05:12:58;;;;;;;10.35;2.40;;;2.50;99.90;;;;;;5092770;28;20021;-74
2022/02/19 05:15:23;;;;;;;11.95;2.55;;;2.40;99.90;;;;;;5092657;28;20442;-71
2022/02/19 05:17:51;;;;;;;11.88;2.33;;;2.40;99.90;;;;;;5093933;28;20028;-70
2022/02/19 05:20:21;;;;;;;21.63;3.65;;;2.30;99.90;;;;;;5093923;28;20028;-74
2022/02/19 05:22:48;;;;;;;12.90;2.63;;;2.30;99.90;;;;;;5093923;28;20016;-73
2022/02/19 05:25:14;;;;;;;13.85;2.42;;;2.20;99.90;;;;;;5094141;28;20032;-76
2022/02/19 05:27:39;;;;;;;12.75;2.50;;;2.20;99.90;;;;;;5093797;28;20028;-74
2022/02/19 05:30:05;;;;;;;25.25;2.88;;;2.10;99.90;;;;;;5093795;28;20500;-72
2022/02/19 05:32:31;;;;;;;14.85;2.22;;;2.10;99.90;;;;;;5093715;28;20020;-77
2022/02/19 05:34:57;;;;;;;13.93;2.80;;;2.00;99.90;;;;;;5093627;28;20055;-72
2022/02/19 05:37:23;;;;;;;12.65;2.03;;;2.00;99.90;;;;;;5093684;28;20019;-74
2022/02/19 05:39:49;;;;;;;13.43;2.65;;;1.90;99.90;;;;;;5094180;28;20078;-71
2022/02/19 05:42:14;;;;;;;11.13;2.55;;;1.90;99.90;;;;;;5093865;28;20024;-75
2022/02/19 05:44:40;;;;;;;13.32;2.42;;;1.80;99.90;;;;;;5093207;28;20397;-72
2022/02/19 05:47:06;;;;;;;8.95;1.80;;;1.80;99.90;;;;;;5093291;28;20035;-75
2022/02/19 05:49:32;;;;;;;14.52;3.10;;;1.80;99.90;;;;;;5093488;28;20512;-76
2022/02/19 05:51:57;;;;;;;11.02;3.08;;;1.80;99.90;;;;;;5093468;28;20024;-73
2022/02/19 05:54:23;;;;;;;10.60;4.03;;;1.80;99.90;;;;;;5093247;28;20099;-75
2022/02/19 05:56:49;;;;;;;20.88;6.55;;;1.80;99.90;;;;;;5093426;28;20016;-74
2022/02/19 05:59:14;;;;;;;13.48;4.93;;;1.90;99.90;;;;;;5093345;28;20393;-78
2022/02/19 06:01:40;;;;;;;20.98;5.88;;;1.90;99.90;;;;;;5093328;28;20020;-76
2022/02/19 06:04:06;;;;;;;24.13;10.15;;;2.00;99.90;;;;;;5093102;28;20449;-72
2022/02/19 06:06:31;;;;;;;19.55;7.10;;;2.00;99.90;;;;;;5093591;28;20032;-74
2022/02/19 06:08:57;;;;;;;18.75;6.03;;;1.90;99.90;;;;;;5093548;28;20104;-74
2022/02/19 06:11:22;;;;;;;16.83;4.03;;;1.90;99.90;;;;;;5093530;28;20443;-72
2022/02/19 06:13:48;;;;;;;11.15;2.63;;;1.90;99.90;;;;;;5093124;28;20110;-75
2022/02/19 06:16:14;;;;;;;15.05;2.50;;;1.90;99.90;;;;;;5093474;28;20107;-72
2022/02/19 06:18:39;;;;;;;15.57;3.20;;;1.80;99.90;;;;;;5093171;28;20029;-77
2022/02/19 06:21:05;;;;;;;13.60;4.30;;;1.70;99.90;;;;;;5093117;28;20025;-75
2022/02/19 06:23:31;;;;;;;14.77;4.55;;;1.80;99.90;;;;;;5093114;28;20024;-74
2022/02/19 06:25:56;;;;;;;11.45;4.50;;;1.70;99.90;;;;;;5093079;28;20477;-76
2022/02/19 06:28:22;;;;;;;12.07;5.10;;;1.80;99.90;;;;;;5093344;28;20367;-74
2022/02/19 06:30:47;;;;;;;18.90;6.75;;;1.80;99.90;;;;;;5093350;28;20042;-75
2022/02/19 06:33:13;;;;;;;11.63;3.28;;;1.80;99.90;;;;;;5092955;28;20492;-76
2022/02/19 06:35:39;;;;;;;19.83;12.30;;;1.90;99.90;;;;;;5093027;28;20073;-75
2022/02/19 06:38:04;;;;;;;10.35;3.92;;;2.00;99.90;;;;;;5092988;28;20539;-73
2022/02/19 06:40:30;;;;;;;12.30;4.20;;;2.00;99.90;;;;;;5093010;28;20020;-75
2022/02/19 06:42:56;;;;;;;15.10;4.50;;;2.00;99.90;;;;;;5092980;28;20020;-75
2022/02/19 06:45:21;;;;;;;9.57;3.50;;;1.80;99.90;;;;;;5093228;28;20031;-74
2022/02/19 06:47:47;;;;;;;10.95;3.38;;;1.90;99.90;;;;;;5093198;28;20032;-75
2022/02/19 06:50:13;;;;;;;15.02;3.83;;;1.90;99.90;;;;;;5093140;28;20021;-73
2022/02/19 06:52:38;;;;;;;13.80;3.28;;;1.80;99.90;;;;;;5093122;28;20028;-76
2022/02/19 06:55:05;;;;;;;12.63;3.25;;;1.80;99.90;;;;;;5092847;28;20048;-74
2022/02/19 06:57:31;;;;;;;26.45;3.90;;;1.80;99.90;;;;;;5095622;28;20035;-72
2022/02/19 06:59:56;;;;;;;15.75;4.20;;;1.80;99.90;;;;;;5096911;28;20374;-73
2022/02/19 07:02:22;;;;;;;13.05;4.45;;;1.70;99.90;;;;;;5095293;28;20024;-75
2022/02/19 07:04:47;;;;;;;14.02;3.92;;;1.70;99.90;;;;;;5096459;28;20048;-73
2022/02/19 07:07:13;;;;;;;10.20;2.30;;;1.70;99.90;;;;;;5097057;28;20024;-73
2022/02/19 07:09:39;;;;;;;13.93;4.43;;;1.70;99.90;;;;;;5096520;28;20028;-73
2022/02/19 07:12:05;;;;;;;11.43;3.08;;;1.80;99.90;;;;;;5096644;28;20363;-72
2022/02/19 07:14:31;;;;;;;14.10;3.20;;;1.70;99.90;;;;;;5096528;28;20031;-74
2022/02/19 07:17:04;;;;;;;6.45;2.13;;;1.80;99.90;;;;;;5096285;28;20028;-75
2022/02/19 07:19:31;;;;;;;14.85;3.08;;;1.80;99.90;;;;;;5096550;28;20024;-76
2022/02/19 07:21:56;;;;;;;20.33;3.30;;;1.90;99.90;;;;;;5096181;28;20054;-72
2022/02/19 07:24:22;;;;;;;11.85;4.38;;;2.00;99.90;;;;;;5096156;28;20051;-75
2022/02/19 07:26:47;;;;;;;28.90;14.55;;;2.00;99.90;;;;;;5096112;28;20039;-73
2022/02/19 07:29:13;;;;;;;14.40;3.53;;;2.10;99.90;;;;;;5096079;28;20141;-76
2022/02/19 07:31:39;;;;;;;16.08;5.05;;;2.20;99.90;;;;;;5096312;28;20028;-73
2022/02/19 07:34:04;;;;;;;13.13;3.55;;;2.30;99.90;;;;;;5096228;28;20378;-75
2022/02/19 07:36:30;;;;;;;13.45;6.07;;;2.40;99.90;;;;;;5096234;28;20024;-73
2022/02/19 07:38:57;;;;;;;14.70;5.00;;;2.40;99.90;;;;;;5095905;28;20543;-73
2022/02/19 07:41:23;;;;;;;14.85;5.85;;;2.40;99.90;;;;;;5096055;28;20077;-75
2022/02/19 07:43:49;;;;;;;19.90;5.18;;;2.50;99.90;;;;;;5095796;28;20028;-73
2022/02/19 07:46:14;;;;;;;14.02;3.63;;;2.50;99.90;;;;;;5095973;28;20099;-72
2022/02/19 07:48:40;;;;;;;17.98;5.53;;;2.60;99.90;;;;;;5095667;28;20566;-75
2022/02/19 07:59:18;;;;;;;11.88;4.65;;;2.80;99.90;;;;;;5095499;28;20504;-73
2022/02/19 08:01:44;;;;;;;11.32;4.65;;;3.10;99.90;;;;;;5095448;28;20478;-76
2022/02/19 08:04:10;;;;;;;14.57;4.03;;;3.20;99.90;;;;;;5095193;28;20044;-75
2022/02/19 08:06:35;;;;;;;21.77;9.45;;;3.40;99.90;;;;;;5095383;28;20024;-74
2022/02/19 08:09:01;;;;;;;26.83;12.52;;;3.50;99.90;;;;;;5094782;28;20028;-75
2022/02/19 08:11:27;;;;;;;19.98;9.45;;;3.60;99.90;;;;;;5095544;28;20020;-74
2022/02/19 08:13:53;;;;;;;22.70;13.98;;;3.80;99.90;;;;;;5095165;28;20066;-74
2022/02/19 08:16:19;;;;;;;12.05;5.78;;;4.00;99.90;;;;;;5095180;28;20025;-74
2022/02/19 08:18:47;;;;;;;11.82;5.03;;;4.10;99.90;;;;;;5095369;28;20023;-73
2022/02/19 08:21:13;;;;;;;13.40;4.50;;;4.30;99.90;;;;;;5095064;28;20020;-72
2022/02/19 08:23:39;;;;;;;14.52;5.35;;;4.50;99.90;;;;;;5095026;28;20016;-76
2022/02/19 08:26:04;;;;;;;14.00;4.25;;;4.60;99.90;;;;;;5093640;28;20115;-73
2022/02/19 08:28:30;;;;;;;7.80;2.60;;;4.80;99.90;;;;;;5094947;28;20077;-75
2022/02/19 08:30:56;;;;;;;20.23;3.85;;;4.90;99.90;;;;;;5094741;28;20028;-75
2022/02/19 08:33:22;;;;;;;10.00;3.00;;;5.00;99.90;;;;;;5094059;28;20032;-76
2022/02/19 08:35:47;;;;;;;11.25;2.40;;;5.20;99.90;;;;;;5094824;28;20032;-75
2022/02/19 08:38:13;;;;;;;17.05;2.65;;;5.50;99.90;;;;;;5094295;28;20958;-76
2022/02/19 08:40:40;;;;;;;12.70;2.75;;;5.80;99.90;;;;;;5101579;28;20115;-75
2022/02/19 08:43:06;;;;;;;12.20;2.30;;;6.00;99.90;;;;;;5093799;28;20066;-76
2022/02/19 08:45:33;;;;;;;8.25;2.22;;;6.20;99.90;;;;;;5110040;28;20024;-75
2022/02/19 08:48:04;;;;;;;14.18;3.53;;;6.30;99.90;;;;;;5114322;28;20029;-74
2022/02/19 08:50:31;;;;;;;11.18;2.60;;;6.60;99.90;;;;;;5113120;28;20054;-73
2022/02/19 08:52:57;;;;;;;11.27;2.63;;;6.70;99.90;;;;;;5115095;28;20024;-74
2022/02/19 08:55:24;;;;;;;12.45;2.22;;;7.00;99.90;;;;;;5114642;27;20028;-72
2022/02/19 08:57:49;;;;;;;9.02;2.33;;;7.50;99.90;;;;;;5114985;28;20029;-73
2022/02/19 09:00:16;;;;;;;11.50;3.72;;;10.10;99.90;;;;;;5115219;28;20019;-72
2022/02/19 09:02:42;;;;;;;8.38;1.92;;;13.80;99.90;;;;;;5114641;28;20019;-70
2022/02/19 09:05:09;;;;;;;12.23;2.88;;;16.20;99.90;;;;;;5114375;28;20556;-70
2022/02/19 09:07:37;;;;;;;10.40;3.13;;;17.70;96.60;;;;;;5114543;28;20019;-70
2022/02/19 09:10:04;;;;;;;9.43;3.53;;;18.70;92.80;;;;;;5114338;28;20031;-71
2022/02/19 09:12:30;;;;;;;12.13;2.95;;;19.50;87.00;;;;;;5114865;28;20412;-73
2022/02/19 09:14:56;;;;;;;10.00;2.95;;;20.30;77.40;;;;;;5096550;28;20035;-72
2022/02/19 09:17:21;;;;;;;5.25;2.00;;;20.70;70.10;;;;;;5114433;28;20038;-73
2022/02/19 09:19:47;;;;;;;7.25;3.08;;;20.90;67.50;;;;;;5099884;28;20099;-71
2022/02/19 09:22:12;;;;;;;7.18;2.53;;;21.30;64.20;;;;;;5092601;28;20355;-72
2022/02/19 09:24:38;;;;;;;8.77;2.60;;;21.70;62.70;;;;;;5105898;28;20027;-70
2022/02/19 09:27:04;;;;;;;8.27;2.10;;;21.90;59.90;;;;;;5113871;27;20016;-70
2022/02/19 09:29:30;;;;;;;9.98;2.08;;;22.00;57.20;;;;;;5114386;28;20036;-70
2022/02/19 09:31:56;;;;;;;6.50;1.80;;;22.10;57.20;;;;;;5114290;28;20526;-71
2022/02/19 09:34:23;;;;;;;7.00;2.00;;;22.60;55.80;;;;;;5114507;28;20024;-71
2022/02/19 09:36:50;;;;;;;6.60;1.77;;;22.40;55.70;;;;;;5099937;28;20103;-71
2022/02/19 09:39:16;;;;;;;7.00;3.22;;;22.40;54.30;;;;;;5093661;28;20031;-74
2022/02/19 09:41:46;;;;;;;8.65;3.60;;;22.20;54.50;;;;;;5093567;28;20032;-74
2022/02/19 09:44:12;;;;;;;10.25;3.67;;;22.80;54.10;;;;;;5093716;28;20182;-70
2022/02/19 09:46:39;;;;;;;7.43;1.83;;;22.70;53.80;;;;;;5094649;28;20425;-71
2022/02/19 09:49:06;;;;;;;6.78;2.22;;;23.20;53.40;;;;;;5113889;28;20077;-71
2022/02/19 09:51:33;;;;;;;9.27;2.30;;;23.80;51.60;;;;;;5113805;28;20019;-73
2022/02/19 09:53:59;;;;;;;9.88;2.40;;;23.70;50.70;;;;;;5113926;28;20111;-74
2022/02/19 09:56:28;;;;;;;8.48;2.60;;;23.90;50.90;;;;;;5113692;28;20103;-72
2022/02/19 09:58:54;;;;;;;6.47;1.88;;;24.10;49.80;;;;;;5113719;28;20068;-72
2022/02/19 10:01:23;;;;;;;6.07;2.08;;;24.10;49.40;;;;;;5112407;28;20030;-74
2022/02/19 10:04:01;;;;;;;12.10;3.38;;;24.00;49.70;;;;;;5114067;28;20045;-72
2022/02/19 10:06:35;;;;;;;6.80;1.95;;;24.30;48.80;;;;;;5113675;28;20042;-73
2022/02/19 10:09:08;;;;;;;14.73;2.33;;;24.30;48.60;;;;;;5113973;28;20072;-72
2022/02/19 10:11:34;;;;;;;9.50;2.35;;;24.50;48.40;;;;;;5113958;28;20027;-71
2022/02/19 10:13:59;;;;;;;4.72;1.75;;;24.50;47.60;;;;;;5113525;28;20485;-71
2022/02/19 10:16:29;;;;;;;6.50;1.75;;;24.00;48.10;;;;;;5113596;28;20026;-70
2022/02/19 10:19:00;;;;;;;5.60;1.60;;;24.70;46.90;;;;;;5113931;28;20419;-72
2022/02/19 10:21:26;;;;;;;5.60;1.80;;;24.20;46.90;;;;;;5113491;28;20031;-72
2022/02/19 10:23:54;;;;;;;8.77;2.42;;;23.90;48.10;;;;;;5113419;28;20023;-70
2022/02/19 10:26:21;;;;;;;8.80;3.70;;;24.30;48.50;;;;;;5098649;28;20040;-73
2022/02/19 10:28:57;;;;;;;7.65;2.42;;;24.20;47.30;;;;;;5093211;28;20027;-72
2022/02/19 10:31:23;;;;;;;9.05;2.13;;;24.10;48.00;;;;;;5094105;28;20028;-71
2022/02/19 10:33:49;;;;;;;13.20;7.68;;;24.00;48.00;;;;;;5097147;28;20020;-71
2022/02/19 10:36:19;;;;;;;11.23;5.80;;;23.70;47.90;;;;;;5094896;28;20142;-72
2022/02/19 10:38:58;;;;;;;9.00;2.75;;;23.50;48.10;;;;;;5096765;28;20020;-71
2022/02/19 10:41:37;;;;;;;10.90;5.13;;;23.30;48.40;;;;;;5097059;28;20047;-72
2022/02/19 10:44:29;;;;;;;10.63;3.55;;;23.00;48.50;;;;;;5097080;28;20034;-72
2022/02/19 10:46:56;;;;;;;7.68;2.30;;;23.30;48.90;;;;;;5096890;28;20081;-72
2022/02/19 10:49:24;;;;;;;9.43;4.45;;;23.30;49.00;;;;;;5096906;28;20051;-73
2022/02/19 10:51:51;;;;;;;8.75;3.90;;;22.90;49.70;;;;;;5097019;28;20099;-73
2022/02/19 10:54:23;;;;;;;7.43;3.70;;;23.40;49.30;;;;;;5096898;28;20046;-70
2022/02/19 10:56:49;;;;;;;6.03;2.38;;;23.50;49.20;;;;;;5097332;28;20012;-72
2022/02/19 10:59:16;;;;;;;7.75;2.53;;;23.40;50.00;;;;;;5096683;28;20020;-74
2022/02/19 11:01:52;;;;;;;6.38;2.20;;;23.00;49.80;;;;;;5096594;28;20115;-72
2022/02/19 11:04:19;;;;;;;6.97;2.00;;;23.40;49.70;;;;;;5096622;28;20052;-72
2022/02/19 11:06:45;;;;;;;7.22;2.10;;;22.40;51.60;;;;;;5096530;28;20394;-72
2022/02/19 11:09:12;;;;;;;8.40;1.85;;;22.10;51.30;;;;;;5096517;28;20028;-69
2022/02/19 11:11:41;;;;;;;9.70;2.50;;;22.20;51.90;;;;;;5096463;28;20099;-72
2022/02/19 11:14:09;;;;;;;5.82;1.75;;;22.60;51.50;;;;;;5096699;28;20508;-71
2022/02/19 11:16:36;;;;;;;6.50;2.13;;;22.30;52.10;;;;;;5095025;28;20031;-72
2022/02/19 11:19:03;;;;;;;6.72;2.40;;;22.70;51.70;;;;;;5096334;28;20020;-70
2022/02/19 11:21:31;;;;;;;9.48;2.40;;;22.20;52.30;;;;;;5096278;28;20008;-71
2022/02/19 11:24:02;;;;;;;8.75;2.30;;;22.80;51.90;;;;;;5096174;28;20390;-71
2022/02/19 11:26:28;;;;;;;4.85;1.80;;;23.00;51.30;;;;;;5096187;28;20039;-69
2022/02/19 11:28:59;;;;;;;9.45;2.20;;;23.40;51.70;;;;;;5096043;28;20048;-71
2022/02/19 11:31:30;;;;;;;5.43;2.08;;;23.60;51.30;;;;;;5096448;28;20024;-71
2022/02/19 11:34:00;;;;;;;7.15;1.98;;;24.00;49.80;;;;;;5096137;28;20482;-71
2022/02/19 11:36:27;;;;;;;6.53;1.88;;;22.90;50.20;;;;;;5093905;28;20447;-72
2022/02/19 11:38:54;;;;;;;7.55;2.05;;;21.20;53.10;;;;;;5096242;28;20453;-70
2022/02/19 11:41:40;;;;;;;6.35;1.98;;;18.30;58.70;;;;;;5095887;28;20490;-70
2022/02/19 11:44:27;;;;;;;6.78;2.38;;;16.70;64.70;;;;;;5095519;28;20048;-71
2022/02/19 11:46:54;;;;;;;7.45;1.90;;;16.50;77.00;;;;;;5095810;28;20370;-70
2022/02/19 11:49:26;;;;;;;7.82;1.55;;;16.50;79.60;;;;;;5095701;28;20032;-71
2022/02/19 11:52:06;;;;;;;5.20;1.77;;;15.70;88.50;;;;;;5095952;28;20103;-69
2022/02/19 11:54:33;;;;;;;6.25;1.65;;;15.40;92.40;;;;;;5095514;28;20028;-71
2022/02/19 11:57:16;;;;;;;7.97;2.17;;;15.20;94.70;;;;;;5095839;28;20543;-69
2022/02/19 11:59:46;;;;;;;7.63;2.15;;;15.00;96.40;;;;;;5095511;28;20482;-70
2022/02/19 12:02:23;;;;;;;6.88;1.90;;;14.60;95.70;;;;;;5095641;28;20028;-72
2022/02/19 12:05:18;;;;;;;5.93;1.90;;;14.90;93.30;;;;;;5093435;28;20394;-70
2022/02/19 12:07:57;;;;;;;4.72;1.75;;;14.90;94.40;;;;;;5094885;28;20074;-70
2022/02/19 12:10:23;;;;;;;8.47;1.90;;;14.80;94.70;;;;;;5095357;28;20028;-70
2022/02/19 12:13:06;;;;;;;6.88;1.70;;;14.60;95.00;;;;;;5095316;28;20028;-70
2022/02/19 12:15:32;;;;;;;9.73;1.75;;;14.40;94.80;;;;;;5095165;28;20082;-71
2022/02/19 12:17:58;;;;;;;7.07;1.63;;;14.30;95.10;;;;;;5095168;28;20028;-69
2022/02/19 12:20:28;;;;;;;5.78;1.58;;;14.40;94.60;;;;;;5095123;28;20500;-70
2022/02/19 12:22:58;;;;;;;6.70;1.40;;;14.30;94.70;;;;;;5095454;28;20020;-72
2022/02/19 12:25:24;;;;;;;9.25;1.85;;;14.50;94.10;;;;;;5095317;28;20024;-70
2022/02/19 12:28:17;;;;;;;6.00;1.70;;;14.60;94.10;;;;;;5094991;28;20119;-72
2022/02/19 12:30:43;;;;;;;6.93;1.55;;;14.70;94.10;;;;;;5095469;28;20016;-69
2022/02/19 12:33:09;;;;;;;4.93;1.50;;;14.70;93.90;;;;;;5095181;28;20028;-69
2022/02/19 12:35:37;;;;;;;5.65;1.70;;;14.60;93.10;;;;;;5094754;28;20100;-68
2022/02/19 12:38:03;;;;;;;9.05;1.83;;;14.30;94.50;;;;;;5095066;28;20034;-69
2022/02/19 12:40:30;;;;;;;8.23;2.13;;;14.20;94.40;;;;;;5094951;28;20020;-71
2022/02/19 12:42:57;;;;;;;5.30;1.65;;;14.10;94.90;;;;;;5094713;28;20020;-73
2022/02/19 12:45:22;;;;;;;6.05;1.80;;;14.10;95.50;;;;;;5094915;28;20024;-73
2022/02/19 12:47:49;;;;;;;8.30;1.67;;;14.50;95.30;;;;;;5094590;28;20032;-76
2022/02/19 12:50:19;;;;;;;5.32;1.40;;;14.50;94.90;;;;;;5094589;28;20021;-73
2022/02/19 12:52:52;;;;;;;7.78;1.58;;;14.80;94.90;;;;;;5094541;28;20024;-72
2022/02/19 12:55:19;;;;;;;5.47;1.40;;;14.70;94.20;;;;;;5094225;28;20020;-74